sensor_id;sensor_type;location;lat;lon;timestamp;P1;durP1;ratioP1;P2;durP2;ratioP2
32918;SDS011;19280;42.646;21.150;2022-10-31T00:00:19;25.35;;;10.95;;
32918;SDS011;19280;42.646;21.150;2022-10-31T00:02:45;31.65;;;10.60;;
32918;SDS011;19280;42.646;21.150;2022-10-31T00:05:11;31.67;;;13.90;;
32918;SDS011;19280;42.646;21.150;2022-10-31T00:07:37;32.60;;;14.38;;
32918;SDS011;19280;42.646;21.150;2022-10-31T00:10:03;47.60;;;19.38;;
32918;SDS011;19280;42.646;21.150;2022-10-31T00:12:30;33.97;;;14.85;;
32918;SDS011;19280;42.646;21.150;2022-10-31T00:14:56;56.47;;;21.25;;
32918;SDS011;19280;42.646;21.150;2022-10-31T00:17:22;36.83;;;17.27;;
32918;SDS011;19280;42.646;21.150;2022-10-31T00:19:48;47.20;;;20.80;;
32918;SDS011;19280;42.646;21.150;2022-10-31T00:22:14;53.45;;;23.08;;
32918;SDS011;19280;42.646;21.150;2022-10-31T00:24:40;62.13;;;24.90;;
32918;SDS011;19280;42.646;21.150;2022-10-31T00:27:06;61.97;;;25.35;;
32918;SDS011;19280;42.646;21.150;2022-10-31T00:29:32;59.22;;;25.13;;
32918;SDS011;19280;42.646;21.150;2022-10-31T00:31:58;74.95;;;26.45;;
32918;SDS011;19280;42.646;21.150;2022-10-31T00:34:24;68.30;;;27.48;;
32918;SDS011;19280;42.646;21.150;2022-10-31T00:36:50;61.38;;;26.60;;
32918;SDS011;19280;42.646;21.150;2022-10-31T00:39:16;56.63;;;24.23;;
32918;SDS011;19280;42.646;21.150;2022-10-31T00:41:42;71.07;;;26.65;;
32918;SDS011;19280;42.646;21.150;2022-10-31T00:44:09;57.72;;;24.58;;
32918;SDS011;19280;42.646;21.150;2022-10-31T00:46:35;68.45;;;27.13;;
32918;SDS011;19280;42.646;21.150;2022-10-31T00:49:01;54.47;;;25.52;;
32918;SDS011;19280;42.646;21.150;2022-10-31T00:51:27;60.22;;;25.05;;
32918;SDS011;19280;42.646;21.150;2022-10-31T00:53:53;56.65;;;25.70;;
32918;SDS011;19280;42.646;21.150;2022-10-31T00:56:19;50.45;;;21.17;;
32918;SDS011;19280;42.646;21.150;2022-10-31T00:58:45;40.65;;;18.10;;
32918;SDS011;19280;42.646;21.150;2022-10-31T01:01:11;36.75;;;16.85;;
32918;SDS011;19280;42.646;21.150;2022-10-31T01:03:37;39.30;;;19.80;;
32918;SDS011;19280;42.646;21.150;2022-10-31T01:08:31;40.83;;;17.33;;
32918;SDS011;19280;42.646;21.150;2022-10-31T01:10:58;29.35;;;12.73;;
32918;SDS011;19280;42.646;21.150;2022-10-31T01:13:24;41.95;;;15.00;;
32918;SDS011;19280;42.646;21.150;2022-10-31T01:15:53;33.80;;;14.90;;
32918;SDS011;19280;42.646;21.150;2022-10-31T01:18:19;33.88;;;14.73;;
32918;SDS011;19280;42.646;21.150;2022-10-31T01:20:45;35.08;;;14.43;;
32918;SDS011;19280;42.646;21.150;2022-10-31T01:23:11;32.88;;;13.68;;
32918;SDS011;19280;42.646;21.150;2022-10-31T01:25:37;33.25;;;16.13;;
32918;SDS011;19280;42.646;21.150;2022-10-31T01:28:04;39.55;;;17.38;;
32918;SDS011;19280;42.646;21.150;2022-10-31T01:30:30;42.08;;;16.63;;
32918;SDS011;19280;42.646;21.150;2022-10-31T01:32:56;33.97;;;16.60;;
32918;SDS011;19280;42.646;21.150;2022-10-31T01:35:22;31.42;;;16.13;;
32918;SDS011;19280;42.646;21.150;2022-10-31T01:37:48;48.05;;;20.52;;
32918;SDS011;19280;42.646;21.150;2022-10-31T01:40:14;44.55;;;19.13;;
32918;SDS011;19280;42.646;21.150;2022-10-31T01:42:40;68.63;;;27.38;;
32918;SDS011;19280;42.646;21.150;2022-10-31T01:45:09;66.00;;;27.92;;
32918;SDS011;19280;42.646;21.150;2022-10-31T01:47:45;71.13;;;29.15;;
32918;SDS011;19280;42.646;21.150;2022-10-31T01:50:33;60.60;;;24.48;;
32918;SDS011;19280;42.646;21.150;2022-10-31T01:52:58;59.47;;;25.52;;
32918;SDS011;19280;42.646;21.150;2022-10-31T01:55:32;67.38;;;26.63;;
32918;SDS011;19280;42.646;21.150;2022-10-31T01:58:07;68.97;;;28.95;;
32918;SDS011;19280;42.646;21.150;2022-10-31T02:00:35;71.05;;;27.45;;
32918;SDS011;19280;42.646;21.150;2022-10-31T02:03:01;66.97;;;27.40;;
32918;SDS011;19280;42.646;21.150;2022-10-31T02:05:28;75.93;;;27.50;;
32918;SDS011;19280;42.646;21.150;2022-10-31T02:10:30;51.53;;;23.65;;
32918;SDS011;19280;42.646;21.150;2022-10-31T02:12:57;44.00;;;20.80;;
32918;SDS011;19280;42.646;21.150;2022-10-31T02:15:24;48.45;;;21.00;;
32918;SDS011;19280;42.646;21.150;2022-10-31T02:17:50;48.00;;;21.38;;
32918;SDS011;19280;42.646;21.150;2022-10-31T02:20:18;40.65;;;19.75;;
32918;SDS011;19280;42.646;21.150;2022-10-31T02:25:41;46.03;;;21.73;;
32918;SDS011;19280;42.646;21.150;2022-10-31T02:28:34;57.42;;;22.98;;
32918;SDS011;19280;42.646;21.150;2022-10-31T02:48:40;39.22;;;15.38;;
32918;SDS011;19280;42.646;21.150;2022-10-31T02:51:07;28.27;;;11.98;;
32918;SDS011;19280;42.646;21.150;2022-10-31T02:53:34;30.65;;;12.50;;
32918;SDS011;19280;42.646;21.150;2022-10-31T02:56:17;29.63;;;13.60;;
32918;SDS011;19280;42.646;21.150;2022-10-31T02:58:49;25.75;;;12.45;;
32918;SDS011;19280;42.646;21.150;2022-10-31T03:01:22;32.42;;;12.95;;
32918;SDS011;19280;42.646;21.150;2022-10-31T03:06:33;26.95;;;12.32;;
32918;SDS011;19280;42.646;21.150;2022-10-31T03:11:32;30.90;;;13.05;;
32918;SDS011;19280;42.646;21.150;2022-10-31T03:19:12;26.90;;;11.27;;
32918;SDS011;19280;42.646;21.150;2022-10-31T03:21:45;28.40;;;12.23;;
32918;SDS011;19280;42.646;21.150;2022-10-31T03:24:11;24.55;;;11.95;;
32918;SDS011;19280;42.646;21.150;2022-10-31T03:26:41;23.58;;;11.88;;
32918;SDS011;19280;42.646;21.150;2022-10-31T03:29:09;25.42;;;12.63;;
32918;SDS011;19280;42.646;21.150;2022-10-31T03:31:38;31.90;;;11.20;;
32918;SDS011;19280;42.646;21.150;2022-10-31T03:34:05;21.27;;;10.82;;
32918;SDS011;19280;42.646;21.150;2022-10-31T03:36:33;26.23;;;11.30;;
32918;SDS011;19280;42.646;21.150;2022-10-31T03:39:00;26.42;;;11.40;;
32918;SDS011;19280;42.646;21.150;2022-10-31T03:41:28;22.40;;;11.60;;
32918;SDS011;19280;42.646;21.150;2022-10-31T03:43:59;24.33;;;10.70;;
32918;SDS011;19280;42.646;21.150;2022-10-31T03:46:27;25.55;;;11.25;;
32918;SDS011;19280;42.646;21.150;2022-10-31T03:48:53;27.95;;;9.35;;
32918;SDS011;19280;42.646;21.150;2022-10-31T03:53:48;24.05;;;9.73;;
32918;SDS011;19280;42.646;21.150;2022-10-31T03:56:30;19.58;;;10.38;;
32918;SDS011;19280;42.646;21.150;2022-10-31T04:01:23;24.55;;;9.77;;
32918;SDS011;19280;42.646;21.150;2022-10-31T04:03:50;19.05;;;9.52;;
32918;SDS011;19280;42.646;21.150;2022-10-31T04:06:16;21.25;;;9.68;;
32918;SDS011;19280;42.646;21.150;2022-10-31T04:08:53;21.45;;;10.02;;
32918;SDS011;19280;42.646;21.150;2022-10-31T04:11:22;22.50;;;8.88;;
32918;SDS011;19280;42.646;21.150;2022-10-31T04:13:49;31.63;;;9.10;;
32918;SDS011;19280;42.646;21.150;2022-10-31T04:16:15;17.77;;;8.05;;
32918;SDS011;19280;42.646;21.150;2022-10-31T04:18:42;21.35;;;10.10;;
32918;SDS011;19280;42.646;21.150;2022-10-31T04:21:08;16.58;;;8.45;;
32918;SDS011;19280;42.646;21.150;2022-10-31T04:23:35;21.77;;;9.50;;
32918;SDS011;19280;42.646;21.150;2022-10-31T04:26:01;19.65;;;10.00;;
32918;SDS011;19280;42.646;21.150;2022-10-31T04:28:27;20.17;;;9.18;;
32918;SDS011;19280;42.646;21.150;2022-10-31T04:30:53;24.58;;;9.95;;
32918;SDS011;19280;42.646;21.150;2022-10-31T04:33:19;23.58;;;10.23;;
32918;SDS011;19280;42.646;21.150;2022-10-31T04:35:45;32.45;;;12.50;;
32918;SDS011;19280;42.646;21.150;2022-10-31T04:38:12;33.63;;;15.02;;
32918;SDS011;19280;42.646;21.150;2022-10-31T04:40:38;36.53;;;15.23;;
32918;SDS011;19280;42.646;21.150;2022-10-31T04:43:04;32.60;;;15.27;;
32918;SDS011;19280;42.646;21.150;2022-10-31T04:45:30;36.38;;;16.23;;
32918;SDS011;19280;42.646;21.150;2022-10-31T04:47:56;40.45;;;20.45;;
32918;SDS011;19280;42.646;21.150;2022-10-31T04:50:22;35.17;;;17.98;;
32918;SDS011;19280;42.646;21.150;2022-10-31T04:52:48;33.22;;;14.77;;
32918;SDS011;19280;42.646;21.150;2022-10-31T04:55:15;28.80;;;14.68;;
32918;SDS011;19280;42.646;21.150;2022-10-31T04:57:42;30.88;;;15.18;;
32918;SDS011;19280;42.646;21.150;2022-10-31T05:00:08;49.95;;;20.98;;
32918;SDS011;19280;42.646;21.150;2022-10-31T05:02:42;46.17;;;18.98;;
32918;SDS011;19280;42.646;21.150;2022-10-31T05:05:08;47.47;;;20.77;;
32918;SDS011;19280;42.646;21.150;2022-10-31T05:07:37;59.38;;;24.75;;
32918;SDS011;19280;42.646;21.150;2022-10-31T05:10:04;66.40;;;25.13;;
32918;SDS011;19280;42.646;21.150;2022-10-31T05:12:30;66.32;;;24.58;;
32918;SDS011;19280;42.646;21.150;2022-10-31T05:14:56;51.40;;;23.45;;
32918;SDS011;19280;42.646;21.150;2022-10-31T05:17:23;53.45;;;23.52;;
32918;SDS011;19280;42.646;21.150;2022-10-31T05:19:49;44.05;;;19.75;;
32918;SDS011;19280;42.646;21.150;2022-10-31T05:22:15;49.70;;;21.73;;
32918;SDS011;19280;42.646;21.150;2022-10-31T05:24:41;42.72;;;19.65;;
32918;SDS011;19280;42.646;21.150;2022-10-31T05:27:07;46.47;;;21.08;;
32918;SDS011;19280;42.646;21.150;2022-10-31T05:29:33;41.92;;;20.05;;
32918;SDS011;19280;42.646;21.150;2022-10-31T05:31:59;54.35;;;21.30;;
32918;SDS011;19280;42.646;21.150;2022-10-31T05:34:25;74.03;;;22.40;;
32918;SDS011;19280;42.646;21.150;2022-10-31T05:36:51;44.58;;;20.35;;
32918;SDS011;19280;42.646;21.150;2022-10-31T05:39:17;48.35;;;19.88;;
32918;SDS011;19280;42.646;21.150;2022-10-31T05:41:43;43.35;;;18.00;;
32918;SDS011;19280;42.646;21.150;2022-10-31T05:44:09;40.92;;;17.08;;
32918;SDS011;19280;42.646;21.150;2022-10-31T05:46:35;34.13;;;14.80;;
32918;SDS011;19280;42.646;21.150;2022-10-31T05:49:02;52.60;;;18.10;;
32918;SDS011;19280;42.646;21.150;2022-10-31T05:51:28;26.52;;;12.00;;
32918;SDS011;19280;42.646;21.150;2022-10-31T05:53:54;29.20;;;12.43;;
32918;SDS011;19280;42.646;21.150;2022-10-31T05:56:20;29.60;;;11.73;;
32918;SDS011;19280;42.646;21.150;2022-10-31T05:58:46;29.92;;;12.52;;
32918;SDS011;19280;42.646;21.150;2022-10-31T06:01:12;38.60;;;16.42;;
32918;SDS011;19280;42.646;21.150;2022-10-31T06:03:38;41.25;;;14.73;;
32918;SDS011;19280;42.646;21.150;2022-10-31T06:06:04;61.15;;;20.95;;
32918;SDS011;19280;42.646;21.150;2022-10-31T06:08:30;48.60;;;20.38;;
32918;SDS011;19280;42.646;21.150;2022-10-31T06:10:56;54.08;;;22.70;;
32918;SDS011;19280;42.646;21.150;2022-10-31T06:13:22;48.08;;;24.23;;
32918;SDS011;19280;42.646;21.150;2022-10-31T06:15:48;56.60;;;24.40;;
32918;SDS011;19280;42.646;21.150;2022-10-31T06:18:14;49.35;;;23.83;;
32918;SDS011;19280;42.646;21.150;2022-10-31T06:20:41;48.75;;;25.95;;
32918;SDS011;19280;42.646;21.150;2022-10-31T06:23:07;42.30;;;24.45;;
32918;SDS011;19280;42.646;21.150;2022-10-31T06:25:33;44.17;;;21.33;;
32918;SDS011;19280;42.646;21.150;2022-10-31T06:27:59;53.83;;;22.88;;
32918;SDS011;19280;42.646;21.150;2022-10-31T06:30:25;38.38;;;18.88;;
32918;SDS011;19280;42.646;21.150;2022-10-31T06:32:51;39.60;;;18.65;;
32918;SDS011;19280;42.646;21.150;2022-10-31T06:35:17;46.22;;;18.45;;
32918;SDS011;19280;42.646;21.150;2022-10-31T06:37:50;33.22;;;18.08;;
32918;SDS011;19280;42.646;21.150;2022-10-31T06:40:16;32.65;;;16.10;;
32918;SDS011;19280;42.646;21.150;2022-10-31T06:42:42;39.53;;;15.18;;
32918;SDS011;19280;42.646;21.150;2022-10-31T06:45:09;35.20;;;13.35;;
32918;SDS011;19280;42.646;21.150;2022-10-31T06:47:35;37.97;;;14.27;;
32918;SDS011;19280;42.646;21.150;2022-10-31T06:50:01;31.88;;;14.35;;
32918;SDS011;19280;42.646;21.150;2022-10-31T06:52:27;36.92;;;14.55;;
32918;SDS011;19280;42.646;21.150;2022-10-31T06:54:53;35.35;;;14.13;;
32918;SDS011;19280;42.646;21.150;2022-10-31T06:57:19;30.10;;;14.45;;
32918;SDS011;19280;42.646;21.150;2022-10-31T06:59:45;34.17;;;14.80;;
32918;SDS011;19280;42.646;21.150;2022-10-31T07:02:11;38.05;;;14.27;;
32918;SDS011;19280;42.646;21.150;2022-10-31T07:04:37;33.00;;;13.45;;
32918;SDS011;19280;42.646;21.150;2022-10-31T07:07:03;25.23;;;12.00;;
32918;SDS011;19280;42.646;21.150;2022-10-31T07:09:29;30.88;;;12.48;;
32918;SDS011;19280;42.646;21.150;2022-10-31T07:11:56;28.73;;;11.25;;
32918;SDS011;19280;42.646;21.150;2022-10-31T07:14:22;29.95;;;9.50;;
32918;SDS011;19280;42.646;21.150;2022-10-31T07:21:39;24.60;;;12.15;;
32918;SDS011;19280;42.646;21.150;2022-10-31T07:26:41;24.25;;;12.65;;
32918;SDS011;19280;42.646;21.150;2022-10-31T07:29:07;37.63;;;13.77;;
32918;SDS011;19280;42.646;21.150;2022-10-31T07:31:33;32.35;;;14.70;;
32918;SDS011;19280;42.646;21.150;2022-10-31T07:33:59;33.25;;;15.23;;
32918;SDS011;19280;42.646;21.150;2022-10-31T07:36:25;31.05;;;13.60;;
32918;SDS011;19280;42.646;21.150;2022-10-31T07:38:51;31.60;;;13.82;;
32918;SDS011;19280;42.646;21.150;2022-10-31T07:41:17;28.67;;;13.68;;
32918;SDS011;19280;42.646;21.150;2022-10-31T07:43:43;40.42;;;13.98;;
32918;SDS011;19280;42.646;21.150;2022-10-31T07:46:09;29.15;;;13.68;;
32918;SDS011;19280;42.646;21.150;2022-10-31T07:48:36;35.00;;;14.02;;
32918;SDS011;19280;42.646;21.150;2022-10-31T07:51:02;28.40;;;13.85;;
32918;SDS011;19280;42.646;21.150;2022-10-31T07:53:28;37.05;;;14.73;;
32918;SDS011;19280;42.646;21.150;2022-10-31T07:55:54;38.72;;;14.35;;
32918;SDS011;19280;42.646;21.150;2022-10-31T07:58:20;32.50;;;14.07;;
32918;SDS011;19280;42.646;21.150;2022-10-31T08:00:47;41.53;;;14.77;;
32918;SDS011;19280;42.646;21.150;2022-10-31T08:03:14;31.17;;;14.23;;
32918;SDS011;19280;42.646;21.150;2022-10-31T08:05:41;35.08;;;13.38;;
32918;SDS011;19280;42.646;21.150;2022-10-31T08:08:07;31.88;;;13.63;;
32918;SDS011;19280;42.646;21.150;2022-10-31T08:10:34;37.10;;;14.35;;
32918;SDS011;19280;42.646;21.150;2022-10-31T08:15:26;32.30;;;13.32;;
32918;SDS011;19280;42.646;21.150;2022-10-31T08:17:52;26.20;;;12.50;;
32918;SDS011;19280;42.646;21.150;2022-10-31T08:20:19;37.55;;;12.88;;
32918;SDS011;19280;42.646;21.150;2022-10-31T08:23:01;40.28;;;13.02;;
32918;SDS011;19280;42.646;21.150;2022-10-31T08:25:28;36.05;;;13.63;;
32918;SDS011;19280;42.646;21.150;2022-10-31T08:27:55;25.13;;;9.52;;
32918;SDS011;19280;42.646;21.150;2022-10-31T08:30:22;25.45;;;9.73;;
32918;SDS011;19280;42.646;21.150;2022-10-31T08:32:57;27.45;;;10.35;;
32918;SDS011;19280;42.646;21.150;2022-10-31T08:35:23;32.65;;;9.20;;
32918;SDS011;19280;42.646;21.150;2022-10-31T08:37:53;25.15;;;7.68;;
32918;SDS011;19280;42.646;21.150;2022-10-31T08:40:19;19.23;;;8.07;;
32918;SDS011;19280;42.646;21.150;2022-10-31T08:42:45;17.25;;;7.68;;
32918;SDS011;19280;42.646;21.150;2022-10-31T08:45:11;22.40;;;7.35;;
32918;SDS011;19280;42.646;21.150;2022-10-31T08:47:37;20.25;;;7.57;;
32918;SDS011;19280;42.646;21.150;2022-10-31T08:50:04;20.15;;;7.50;;
32918;SDS011;19280;42.646;21.150;2022-10-31T08:52:30;21.77;;;7.40;;
32918;SDS011;19280;42.646;21.150;2022-10-31T08:54:56;14.23;;;6.95;;
32918;SDS011;19280;42.646;21.150;2022-10-31T08:57:22;24.95;;;7.85;;
32918;SDS011;19280;42.646;21.150;2022-10-31T08:59:48;13.70;;;6.82;;
32918;SDS011;19280;42.646;21.150;2022-10-31T09:02:14;16.63;;;6.30;;
32918;SDS011;19280;42.646;21.150;2022-10-31T09:04:40;18.75;;;6.78;;
32918;SDS011;19280;42.646;21.150;2022-10-31T09:07:06;17.30;;;6.93;;
32918;SDS011;19280;42.646;21.150;2022-10-31T09:09:32;11.20;;;5.82;;
32918;SDS011;19280;42.646;21.150;2022-10-31T09:11:58;17.98;;;6.32;;
32918;SDS011;19280;42.646;21.150;2022-10-31T09:14:24;19.10;;;7.10;;
32918;SDS011;19280;42.646;21.150;2022-10-31T09:16:51;17.20;;;6.60;;
32918;SDS011;19280;42.646;21.150;2022-10-31T09:19:17;17.02;;;6.85;;
32918;SDS011;19280;42.646;21.150;2022-10-31T09:21:43;22.60;;;7.38;;
32918;SDS011;19280;42.646;21.150;2022-10-31T09:24:09;17.63;;;6.28;;
32918;SDS011;19280;42.646;21.150;2022-10-31T09:26:35;17.10;;;6.90;;
32918;SDS011;19280;42.646;21.150;2022-10-31T09:29:02;20.27;;;7.25;;
32918;SDS011;19280;42.646;21.150;2022-10-31T09:31:28;15.77;;;7.00;;
32918;SDS011;19280;42.646;21.150;2022-10-31T09:36:24;15.55;;;6.85;;
32918;SDS011;19280;42.646;21.150;2022-10-31T09:38:51;18.95;;;7.07;;
32918;SDS011;19280;42.646;21.150;2022-10-31T09:46:25;22.70;;;6.35;;
32918;SDS011;19280;42.646;21.150;2022-10-31T09:51:23;18.20;;;5.97;;
32918;SDS011;19280;42.646;21.150;2022-10-31T09:56:20;13.07;;;5.18;;
32918;SDS011;19280;42.646;21.150;2022-10-31T09:58:53;11.65;;;5.25;;
32918;SDS011;19280;42.646;21.150;2022-10-31T10:01:34;13.80;;;4.97;;
32918;SDS011;19280;42.646;21.150;2022-10-31T10:06:35;15.13;;;4.88;;
32918;SDS011;19280;42.646;21.150;2022-10-31T10:09:04;14.10;;;4.72;;
32918;SDS011;19280;42.646;21.150;2022-10-31T10:19:17;21.70;;;4.93;;
32918;SDS011;19280;42.646;21.150;2022-10-31T10:22:09;11.52;;;4.10;;
32918;SDS011;19280;42.646;21.150;2022-10-31T10:24:44;16.90;;;4.20;;
32918;SDS011;19280;42.646;21.150;2022-10-31T10:27:17;17.73;;;4.93;;
32918;SDS011;19280;42.646;21.150;2022-10-31T10:30:07;16.50;;;4.22;;
32918;SDS011;19280;42.646;21.150;2022-10-31T10:32:40;13.73;;;4.70;;
32918;SDS011;19280;42.646;21.150;2022-10-31T10:35:19;10.18;;;4.63;;
32918;SDS011;19280;42.646;21.150;2022-10-31T10:37:46;8.25;;;4.03;;
32918;SDS011;19280;42.646;21.150;2022-10-31T10:40:23;14.25;;;4.32;;
32918;SDS011;19280;42.646;21.150;2022-10-31T10:42:59;11.13;;;4.40;;
32918;SDS011;19280;42.646;21.150;2022-10-31T10:45:45;10.88;;;4.13;;
32918;SDS011;19280;42.646;21.150;2022-10-31T10:51:03;11.68;;;4.30;;
32918;SDS011;19280;42.646;21.150;2022-10-31T10:53:55;18.30;;;4.20;;
32918;SDS011;19280;42.646;21.150;2022-10-31T10:59:13;8.32;;;3.55;;
32918;SDS011;19280;42.646;21.150;2022-10-31T11:01:40;12.32;;;3.55;;
32918;SDS011;19280;42.646;21.150;2022-10-31T11:04:25;13.52;;;4.15;;
32918;SDS011;19280;42.646;21.150;2022-10-31T11:09:47;12.77;;;4.63;;
32918;SDS011;19280;42.646;21.150;2022-10-31T11:12:19;14.23;;;3.97;;
32918;SDS011;19280;42.646;21.150;2022-10-31T11:14:55;12.35;;;3.75;;
32918;SDS011;19280;42.646;21.150;2022-10-31T11:17:34;14.93;;;3.38;;
32918;SDS011;19280;42.646;21.150;2022-10-31T11:22:43;10.32;;;3.17;;
32918;SDS011;19280;42.646;21.150;2022-10-31T11:25:22;13.82;;;4.07;;
32918;SDS011;19280;42.646;21.150;2022-10-31T11:28:01;10.30;;;3.28;;
32918;SDS011;19280;42.646;21.150;2022-10-31T11:30:28;10.13;;;2.58;;
32918;SDS011;19280;42.646;21.150;2022-10-31T11:32:54;49.40;;;4.10;;
32918;SDS011;19280;42.646;21.150;2022-10-31T11:35:21;10.60;;;1.77;;
32918;SDS011;19280;42.646;21.150;2022-10-31T11:37:48;13.05;;;2.92;;
32918;SDS011;19280;42.646;21.150;2022-10-31T11:40:25;9.43;;;2.35;;
32918;SDS011;19280;42.646;21.150;2022-10-31T11:42:52;12.43;;;2.42;;
32918;SDS011;19280;42.646;21.150;2022-10-31T11:47:50;38.85;;;4.68;;
32918;SDS011;19280;42.646;21.150;2022-10-31T11:50:19;16.80;;;2.83;;
32918;SDS011;19280;42.646;21.150;2022-10-31T11:52:46;9.30;;;1.90;;
32918;SDS011;19280;42.646;21.150;2022-10-31T11:55:17;14.23;;;2.25;;
32918;SDS011;19280;42.646;21.150;2022-10-31T11:57:54;19.13;;;3.38;;
32918;SDS011;19280;42.646;21.150;2022-10-31T12:00:22;33.65;;;3.33;;
32918;SDS011;19280;42.646;21.150;2022-10-31T12:02:49;13.15;;;2.30;;
32918;SDS011;19280;42.646;21.150;2022-10-31T12:05:19;12.55;;;1.80;;
32918;SDS011;19280;42.646;21.150;2022-10-31T12:07:47;22.70;;;2.60;;
32918;SDS011;19280;42.646;21.150;2022-10-31T12:10:14;8.32;;;1.75;;
32918;SDS011;19280;42.646;21.150;2022-10-31T12:15:37;10.48;;;2.20;;
32918;SDS011;19280;42.646;21.150;2022-10-31T12:20:54;12.60;;;2.28;;
32918;SDS011;19280;42.646;21.150;2022-10-31T12:33:57;28.13;;;3.00;;
32918;SDS011;19280;42.646;21.150;2022-10-31T12:38:56;20.35;;;2.33;;
32918;SDS011;19280;42.646;21.150;2022-10-31T12:52:10;17.35;;;2.20;;
32918;SDS011;19280;42.646;21.150;2022-10-31T12:54:45;20.52;;;2.42;;
32918;SDS011;19280;42.646;21.150;2022-10-31T12:57:25;14.93;;;1.83;;
32918;SDS011;19280;42.646;21.150;2022-10-31T12:59:57;7.78;;;2.20;;
32918;SDS011;19280;42.646;21.150;2022-10-31T13:05:17;9.43;;;2.10;;
32918;SDS011;19280;42.646;21.150;2022-10-31T13:07:45;21.05;;;2.20;;
32918;SDS011;19280;42.646;21.150;2022-10-31T13:12:38;9.32;;;2.70;;
32918;SDS011;19280;42.646;21.150;2022-10-31T13:15:23;10.68;;;3.05;;
32918;SDS011;19280;42.646;21.150;2022-10-31T13:17:54;14.95;;;3.17;;
32918;SDS011;19280;42.646;21.150;2022-10-31T13:20:31;13.35;;;3.03;;
32918;SDS011;19280;42.646;21.150;2022-10-31T13:25:47;9.73;;;2.38;;
32918;SDS011;19280;42.646;21.150;2022-10-31T13:30:41;22.95;;;2.83;;
32918;SDS011;19280;42.646;21.150;2022-10-31T13:40:58;9.77;;;2.45;;
32918;SDS011;19280;42.646;21.150;2022-10-31T13:43:34;18.33;;;2.33;;
32918;SDS011;19280;42.646;21.150;2022-10-31T13:46:21;14.63;;;2.20;;
32918;SDS011;19280;42.646;21.150;2022-10-31T13:48:48;45.95;;;4.93;;
32918;SDS011;19280;42.646;21.150;2022-10-31T13:51:23;57.88;;;4.75;;
32918;SDS011;19280;42.646;21.150;2022-10-31T13:56:25;29.42;;;3.55;;
32918;SDS011;19280;42.646;21.150;2022-10-31T13:59:00;17.42;;;3.03;;
32918;SDS011;19280;42.646;21.150;2022-10-31T14:01:27;9.52;;;2.08;;
32918;SDS011;19280;42.646;21.150;2022-10-31T14:04:06;6.10;;;1.98;;
32918;SDS011;19280;42.646;21.150;2022-10-31T14:06:37;13.00;;;2.20;;
32918;SDS011;19280;42.646;21.150;2022-10-31T14:09:04;16.67;;;2.95;;
32918;SDS011;19280;42.646;21.150;2022-10-31T14:11:30;19.13;;;3.00;;
32918;SDS011;19280;42.646;21.150;2022-10-31T14:13:57;17.17;;;2.35;;
32918;SDS011;19280;42.646;21.150;2022-10-31T14:16:30;16.80;;;2.55;;
32918;SDS011;19280;42.646;21.150;2022-10-31T14:18:58;16.55;;;2.60;;
32918;SDS011;19280;42.646;21.150;2022-10-31T14:21:29;15.73;;;3.15;;
32918;SDS011;19280;42.646;21.150;2022-10-31T14:23:56;17.73;;;4.82;;
32918;SDS011;19280;42.646;21.150;2022-10-31T14:28:55;14.52;;;2.88;;
32918;SDS011;19280;42.646;21.150;2022-10-31T14:47:31;17.58;;;2.90;;
32918;SDS011;19280;42.646;21.150;2022-10-31T14:52:28;16.58;;;3.00;;
32918;SDS011;19280;42.646;21.150;2022-10-31T14:54:55;17.10;;;2.92;;
32918;SDS011;19280;42.646;21.150;2022-10-31T14:57:23;18.85;;;3.70;;
32918;SDS011;19280;42.646;21.150;2022-10-31T14:59:53;11.30;;;3.42;;
32918;SDS011;19280;42.646;21.150;2022-10-31T15:02:24;16.25;;;3.65;;
32918;SDS011;19280;42.646;21.150;2022-10-31T15:04:52;22.75;;;3.30;;
32918;SDS011;19280;42.646;21.150;2022-10-31T15:07:23;7.90;;;3.30;;
32918;SDS011;19280;42.646;21.150;2022-10-31T15:09:56;18.45;;;3.53;;
32918;SDS011;19280;42.646;21.150;2022-10-31T15:12:24;26.75;;;4.20;;
32918;SDS011;19280;42.646;21.150;2022-10-31T15:14:51;20.50;;;4.38;;
32918;SDS011;19280;42.646;21.150;2022-10-31T15:17:17;13.32;;;3.75;;
32918;SDS011;19280;42.646;21.150;2022-10-31T15:19:43;15.27;;;4.35;;
32918;SDS011;19280;42.646;21.150;2022-10-31T15:22:10;10.27;;;3.90;;
32918;SDS011;19280;42.646;21.150;2022-10-31T15:24:39;24.52;;;4.95;;
32918;SDS011;19280;42.646;21.150;2022-10-31T15:27:05;15.68;;;4.97;;
32918;SDS011;19280;42.646;21.150;2022-10-31T15:29:36;12.10;;;4.13;;
32918;SDS011;19280;42.646;21.150;2022-10-31T15:32:15;9.65;;;4.10;;
32918;SDS011;19280;42.646;21.150;2022-10-31T15:34:43;18.23;;;4.60;;
32918;SDS011;19280;42.646;21.150;2022-10-31T15:37:16;18.23;;;4.10;;
32918;SDS011;19280;42.646;21.150;2022-10-31T15:39:43;11.57;;;3.58;;
32918;SDS011;19280;42.646;21.150;2022-10-31T15:42:29;22.77;;;3.78;;
32918;SDS011;19280;42.646;21.150;2022-10-31T15:47:22;14.68;;;4.35;;
32918;SDS011;19280;42.646;21.150;2022-10-31T15:49:52;27.27;;;4.22;;
32918;SDS011;19280;42.646;21.150;2022-10-31T15:55:01;19.95;;;4.43;;
32918;SDS011;19280;42.646;21.150;2022-10-31T15:57:27;16.40;;;3.85;;
32918;SDS011;19280;42.646;21.150;2022-10-31T15:59:53;32.67;;;5.15;;
32918;SDS011;19280;42.646;21.150;2022-10-31T16:02:24;21.17;;;4.30;;
32918;SDS011;19280;42.646;21.150;2022-10-31T16:04:52;19.23;;;3.53;;
32918;SDS011;19280;42.646;21.150;2022-10-31T16:07:19;17.67;;;4.50;;
32918;SDS011;19280;42.646;21.150;2022-10-31T16:09:49;14.10;;;4.53;;
32918;SDS011;19280;42.646;21.150;2022-10-31T16:12:15;19.88;;;4.35;;
32918;SDS011;19280;42.646;21.150;2022-10-31T16:14:41;14.98;;;4.57;;
32918;SDS011;19280;42.646;21.150;2022-10-31T16:17:16;14.25;;;4.07;;
32918;SDS011;19280;42.646;21.150;2022-10-31T16:19:53;16.65;;;3.80;;
32918;SDS011;19280;42.646;21.150;2022-10-31T16:22:22;17.70;;;4.30;;
32918;SDS011;19280;42.646;21.150;2022-10-31T16:24:51;16.02;;;4.35;;
32918;SDS011;19280;42.646;21.150;2022-10-31T16:27:25;16.10;;;4.10;;
32918;SDS011;19280;42.646;21.150;2022-10-31T16:29:54;24.25;;;4.75;;
32918;SDS011;19280;42.646;21.150;2022-10-31T16:32:33;14.63;;;3.78;;
32918;SDS011;19280;42.646;21.150;2022-10-31T16:37:40;11.05;;;3.95;;
32918;SDS011;19280;42.646;21.150;2022-10-31T16:40:07;12.73;;;4.55;;
32918;SDS011;19280;42.646;21.150;2022-10-31T16:42:34;18.98;;;5.03;;
32918;SDS011;19280;42.646;21.150;2022-10-31T16:45:00;31.65;;;17.02;;
32918;SDS011;19280;42.646;21.150;2022-10-31T16:47:26;22.15;;;7.18;;
32918;SDS011;19280;42.646;21.150;2022-10-31T16:49:52;31.30;;;8.60;;
32918;SDS011;19280;42.646;21.150;2022-10-31T16:52:18;44.35;;;14.60;;
32918;SDS011;19280;42.646;21.150;2022-10-31T16:54:44;30.58;;;11.77;;
32918;SDS011;19280;42.646;21.150;2022-10-31T16:57:14;34.28;;;15.55;;
32918;SDS011;19280;42.646;21.150;2022-10-31T16:59:41;50.65;;;21.13;;
32918;SDS011;19280;42.646;21.150;2022-10-31T17:02:15;49.90;;;20.17;;
32918;SDS011;19280;42.646;21.150;2022-10-31T17:04:43;47.40;;;17.05;;
32918;SDS011;19280;42.646;21.150;2022-10-31T17:07:29;52.28;;;17.25;;
32918;SDS011;19280;42.646;21.150;2022-10-31T17:09:55;43.80;;;17.67;;